Galesburg, Iowa
Current Conditions -  °F | °C
As of 7:15 PM on Friday 24 Oct 2014 (Local Time) from KTNU Reporting Station
Haze Haze  
Wind Chill: 59°   Ceiling: Unl
Heat Index: 59°   Visibility: 3mi
Dew Point: 57°   Wind: 5mph
Humidity: 94%   Direction: 200°SSW
Pressure: 29.94"   Gusts: NA
Location:  41.587°N, 93.0159°W
Report Text: KTNU 250015Z AUTO 20004KT 3SM BR FEW011 FEW023 15/14 A2994 RMK AO2
Loading
Personal Weather Stations






























Interactive Weather Map New forecast layout! Learn more

10-Day Weather Forecast

Advertisements
Track Severe Weather on mobile